createdAt,value
2018-11-04T00:00:24.856Z,111.73
2018-11-04T00:02:53.993Z,120.83
2018-11-04T00:05:22.943Z,114.83
2018-11-04T00:07:52.414Z,121.00
2018-11-04T00:10:21.366Z,110.47
2018-11-04T00:12:50.548Z,97.33
2018-11-04T00:15:19.536Z,87.80
2018-11-04T00:17:48.534Z,83.90
2018-11-04T00:20:17.706Z,70.63
2018-11-04T00:22:46.592Z,58.87
2018-11-04T00:25:15.612Z,48.30
2018-11-04T00:27:44.671Z,45.23
2018-11-04T00:30:15.543Z,45.73
2018-11-04T00:32:44.883Z,44.73
2018-11-04T00:35:13.844Z,42.70
2018-11-04T00:37:42.798Z,43.30
2018-11-04T00:40:11.801Z,34.80
2018-11-04T00:42:40.774Z,32.97
2018-11-04T00:45:10.300Z,32.20
2018-11-04T00:47:39.984Z,31.13
2018-11-04T00:50:12.755Z,31.27
2018-11-04T00:52:42.138Z,30.50
2018-11-04T00:55:11.683Z,31.77
2018-11-04T00:57:40.946Z,31.90
2018-11-04T01:00:18.413Z,30.87
2018-11-04T01:02:49.179Z,27.67
2018-11-04T01:05:18.913Z,29.77
2018-11-04T01:07:47.901Z,31.27
2018-11-04T01:10:16.929Z,30.83
2018-11-04T01:12:46.298Z,29.40
2018-11-04T01:15:15.954Z,28.93
2018-11-04T01:17:45.033Z,28.57
2018-11-04T01:20:16.399Z,27.97
2018-11-04T01:22:45.805Z,28.20
2018-11-04T01:25:14.850Z,32.07
2018-11-04T01:27:43.828Z,37.40
2018-11-04T01:30:14.450Z,38.77
2018-11-04T01:32:43.926Z,41.90
2018-11-04T01:35:12.920Z,40.53
2018-11-04T01:37:42.685Z,43.57
2018-11-04T01:40:11.840Z,42.87
2018-11-04T01:42:40.998Z,44.43
2018-11-04T01:45:11.697Z,43.50
2018-11-04T01:47:40.933Z,50.40
2018-11-04T01:50:13.175Z,51.00
2018-11-04T01:52:42.279Z,50.90
2018-11-04T01:55:12.373Z,48.50
2018-11-04T01:57:41.545Z,46.13
2018-11-04T02:00:15.031Z,33.77
2018-11-04T02:02:44.753Z,32.83
2018-11-04T02:05:14.152Z,28.93
2018-11-04T02:07:43.277Z,29.47
2018-11-04T02:10:13.416Z,29.50
2018-11-04T02:12:42.417Z,28.07
2018-11-04T02:15:12.750Z,27.90
2018-11-04T02:17:41.923Z,26.67
2018-11-04T02:20:12.373Z,25.50
2018-11-04T02:22:41.863Z,26.27
2018-11-04T02:25:12.173Z,26.57
2018-11-04T02:27:41.503Z,25.47
2018-11-04T02:30:14.486Z,26.27
2018-11-04T02:32:44.454Z,23.37
2018-11-04T02:35:14.328Z,26.60
2018-11-04T02:37:43.321Z,25.53
2018-11-04T02:40:12.826Z,25.13
2018-11-04T02:42:41.887Z,23.73
2018-11-04T02:45:11.217Z,24.30
2018-11-04T02:47:40.798Z,22.90
2018-11-04T02:50:10.531Z,23.47
2018-11-04T02:52:39.906Z,24.10
2018-11-04T02:55:09.373Z,22.57
2018-11-04T02:57:38.604Z,23.40
2018-11-04T03:00:10.152Z,24.13
2018-11-04T03:02:39.191Z,21.37
2018-11-04T03:05:08.699Z,23.13
2018-11-04T03:07:37.760Z,21.70
2018-11-04T03:10:06.987Z,22.13
2018-11-04T03:12:35.965Z,21.47
2018-11-04T03:15:04.932Z,21.77
2018-11-04T03:17:34.009Z,21.27
2018-11-04T03:20:02.974Z,21.57
2018-11-04T03:22:32.092Z,20.57
2018-11-04T03:25:01.750Z,20.73
2018-11-04T03:27:30.742Z,22.00
2018-11-04T03:29:59.745Z,21.33
2018-11-04T03:32:28.806Z,20.80
2018-11-04T03:34:57.700Z,19.97
2018-11-04T03:37:26.725Z,19.90
2018-11-04T03:39:55.859Z,20.17
2018-11-04T03:42:24.841Z,20.30
2018-11-04T03:44:54.596Z,18.60
2018-11-04T03:47:24.028Z,18.87
2018-11-04T03:49:53.629Z,18.23
2018-11-04T03:52:22.584Z,18.03
2018-11-04T03:54:51.646Z,17.57
2018-11-04T03:57:20.713Z,18.07
2018-11-04T03:59:49.836Z,18.03
2018-11-04T04:02:19.063Z,16.33
2018-11-04T04:04:48.281Z,16.40
2018-11-04T04:07:17.303Z,16.00
2018-11-04T04:09:46.469Z,15.80
2018-11-04T04:12:16.178Z,14.47
2018-11-04T04:14:46.331Z,15.30
2018-11-04T04:17:15.399Z,14.20
2018-11-04T04:19:46.410Z,14.90
2018-11-04T04:22:15.455Z,14.80
2018-11-04T04:24:44.448Z,13.33
2018-11-04T04:27:13.500Z,12.20
2018-11-04T04:29:42.613Z,13.80
2018-11-04T04:32:11.572Z,13.40
2018-11-04T04:34:40.727Z,13.73
2018-11-04T04:37:10.541Z,13.23
2018-11-04T04:39:39.477Z,13.13
2018-11-04T04:42:08.527Z,13.73
2018-11-04T04:44:38.153Z,12.90
2018-11-04T04:47:07.256Z,13.03
2018-11-04T04:49:41.259Z,12.60
2018-11-04T04:52:12.138Z,11.67
2018-11-04T04:54:41.478Z,11.20
2018-11-04T04:57:12.134Z,11.40
2018-11-04T04:59:43.543Z,11.17
2018-11-04T05:02:14.059Z,10.90
2018-11-04T05:04:43.669Z,10.97
2018-11-04T05:07:14.160Z,11.10
2018-11-04T05:09:43.598Z,10.53
2018-11-04T05:12:12.980Z,9.73
2018-11-04T05:14:42.172Z,10.57
2018-11-04T05:17:11.331Z,10.30
2018-11-04T05:19:40.599Z,9.23
2018-11-04T05:22:09.851Z,9.90
2018-11-04T05:24:39.073Z,9.13
2018-11-04T05:27:08.178Z,9.70
2018-11-04T05:29:37.356Z,9.57
2018-11-04T05:32:06.591Z,10.43
2018-11-04T05:34:35.802Z,9.40
2018-11-04T05:37:05.268Z,7.93
2018-11-04T05:39:34.637Z,8.83
2018-11-04T05:42:04.241Z,8.47
2018-11-04T05:44:33.199Z,8.37
2018-11-04T05:47:02.226Z,8.90
2018-11-04T05:49:31.280Z,8.90
2018-11-04T05:52:00.389Z,7.70
2018-11-04T05:54:29.460Z,8.77
2018-11-04T05:56:58.607Z,7.60
2018-11-04T05:59:27.692Z,8.30
2018-11-04T06:02:01.084Z,7.63
2018-11-04T06:04:30.088Z,8.07
2018-11-04T06:06:59.012Z,7.07
2018-11-04T06:09:28.049Z,6.77
2018-11-04T06:11:57.200Z,7.33
2018-11-04T06:14:26.226Z,7.57
2018-11-04T06:16:55.265Z,7.23
2018-11-04T06:19:24.323Z,7.23
2018-11-04T06:21:53.934Z,6.23
2018-11-04T06:24:23.157Z,6.43
2018-11-04T06:26:52.330Z,6.43
2018-11-04T06:29:21.754Z,6.47
2018-11-04T06:31:51.035Z,5.90
2018-11-04T06:34:20.204Z,6.40
2018-11-04T06:36:49.294Z,5.83
2018-11-04T06:39:18.349Z,5.33
2018-11-04T06:41:48.408Z,6.07
2018-11-04T06:44:17.477Z,4.83
2018-11-04T06:46:48.278Z,5.50
2018-11-04T06:49:17.303Z,6.00
2018-11-04T06:51:47.240Z,5.67
2018-11-04T06:54:17.297Z,5.87
2018-11-04T06:56:47.210Z,7.20
2018-11-04T06:59:16.409Z,6.77
2018-11-04T07:01:45.567Z,5.97
2018-11-04T07:04:21.306Z,5.93
2018-11-04T07:06:50.574Z,5.90
2018-11-04T07:09:19.551Z,5.57
2018-11-04T07:11:49.837Z,5.30
2018-11-04T07:14:19.527Z,5.53
2018-11-04T07:16:48.569Z,5.77
2018-11-04T07:19:17.737Z,5.17
2018-11-04T07:21:46.891Z,5.03
2018-11-04T07:24:16.842Z,5.03
2018-11-04T07:26:45.887Z,5.20
2018-11-04T07:29:15.002Z,5.10
2018-11-04T07:31:44.049Z,5.33
2018-11-04T07:34:13.173Z,5.00
2018-11-04T07:36:42.239Z,4.80
2018-11-04T07:39:12.896Z,4.37
2018-11-04T07:41:41.967Z,4.17
2018-11-04T07:44:11.156Z,4.80
2018-11-04T07:46:40.201Z,4.83
2018-11-04T07:49:09.362Z,4.37
2018-11-04T07:51:38.647Z,4.00
2018-11-04T07:54:08.031Z,4.40
2018-11-04T07:56:37.174Z,4.77
2018-11-04T07:59:06.665Z,4.83
2018-11-04T08:01:35.805Z,4.33
2018-11-04T08:04:05.197Z,4.70
2018-11-04T08:06:34.387Z,4.63
2018-11-04T08:09:04.224Z,4.73
2018-11-04T08:11:33.373Z,4.10
2018-11-04T08:14:02.466Z,4.37
2018-11-04T08:16:31.894Z,5.00
2018-11-04T08:19:01.744Z,5.27
2018-11-04T08:21:31.066Z,4.73
2018-11-04T08:24:00.039Z,4.87
2018-11-04T08:26:29.159Z,5.00
2018-11-04T08:28:59.214Z,4.70
2018-11-04T08:31:28.319Z,4.37
2018-11-04T08:33:57.427Z,4.40
2018-11-04T08:36:26.669Z,4.60
2018-11-04T08:38:55.805Z,4.90
2018-11-04T08:41:24.928Z,4.50
2018-11-04T08:43:54.157Z,5.13
2018-11-04T08:46:26.741Z,4.77
2018-11-04T08:48:56.090Z,4.70
2018-11-04T08:51:25.270Z,4.90
2018-11-04T08:53:54.284Z,5.20
2018-11-04T08:56:23.538Z,4.40
2018-11-04T08:58:52.645Z,5.20
2018-11-04T09:01:21.784Z,5.00
2018-11-04T09:03:50.995Z,6.30
2018-11-04T09:06:19.992Z,5.70
2018-11-04T09:08:49.275Z,5.47
2018-11-04T09:11:18.339Z,6.00
2018-11-04T09:13:47.446Z,5.60
2018-11-04T09:16:16.710Z,5.87
2018-11-04T09:18:52.153Z,5.87
2018-11-04T09:21:21.118Z,5.63
2018-11-04T09:23:50.321Z,6.20
2018-11-04T09:26:19.468Z,5.70
2018-11-04T09:28:48.478Z,6.30
2018-11-04T09:31:17.736Z,6.50
2018-11-04T09:33:46.828Z,6.67
2018-11-04T09:36:16.193Z,7.17
2018-11-04T09:38:45.687Z,7.67
2018-11-04T09:41:14.964Z,7.70
2018-11-04T09:43:44.810Z,6.80
2018-11-04T09:46:14.000Z,7.53
2018-11-04T09:48:44.230Z,7.43
2018-11-04T09:51:13.472Z,7.47
2018-11-04T09:53:42.628Z,8.13
2018-11-04T09:56:11.808Z,7.83
2018-11-04T09:58:41.644Z,7.77
2018-11-04T10:01:17.067Z,7.70
2018-11-04T10:03:46.051Z,7.97
2018-11-04T10:06:15.259Z,7.73
2018-11-04T10:08:44.413Z,8.63
2018-11-04T10:11:13.545Z,8.57
2018-11-04T10:13:42.691Z,8.90
2018-11-04T10:16:12.334Z,7.83
2018-11-04T10:18:41.540Z,8.57
2018-11-04T10:21:10.877Z,9.37
2018-11-04T10:23:40.358Z,8.90
2018-11-04T10:26:09.695Z,9.57
2018-11-04T10:28:43.969Z,9.70
2018-11-04T10:31:13.023Z,10.20
2018-11-04T10:33:42.578Z,10.90
2018-11-04T10:36:11.749Z,10.20
2018-11-04T10:38:40.964Z,11.13
2018-11-04T10:41:10.300Z,11.23
2018-11-04T10:43:40.111Z,11.53
2018-11-04T10:46:09.050Z,12.13
2018-11-04T10:48:38.061Z,11.47
2018-11-04T10:51:07.288Z,11.70
2018-11-04T10:53:36.260Z,12.07
2018-11-04T10:56:05.388Z,11.60
2018-11-04T10:58:34.343Z,13.40
2018-11-04T11:01:10.811Z,12.93
2018-11-04T11:03:40.276Z,12.80
2018-11-04T11:06:09.559Z,14.10
2018-11-04T11:08:38.722Z,13.37
2018-11-04T11:11:14.111Z,13.57
2018-11-04T11:13:43.185Z,13.73
2018-11-04T11:16:12.167Z,14.50
2018-11-04T11:18:41.231Z,14.90
2018-11-04T11:21:10.343Z,13.80
2018-11-04T11:23:39.692Z,14.80
2018-11-04T11:26:08.507Z,13.47
2018-11-04T11:28:37.545Z,15.43
2018-11-04T11:31:07.777Z,15.10
2018-11-04T11:33:42.755Z,15.80
2018-11-04T11:36:21.578Z,14.93
2018-11-04T11:38:50.683Z,15.37
2018-11-04T11:41:19.882Z,15.77
2018-11-04T11:43:49.052Z,16.77
2018-11-04T11:46:24.790Z,17.57
2018-11-04T11:48:54.048Z,17.07
2018-11-04T11:51:23.093Z,15.27
2018-11-04T11:53:52.023Z,16.83
2018-11-04T11:56:21.203Z,17.63
2018-11-04T11:58:50.441Z,17.93
2018-11-04T12:01:19.832Z,17.27
2018-11-04T12:03:48.701Z,17.40
2018-11-04T12:06:17.718Z,17.37
2018-11-04T12:08:46.693Z,17.23
2018-11-04T12:11:15.586Z,18.73
2018-11-04T12:13:44.641Z,17.77
2018-11-04T12:16:13.673Z,17.47
2018-11-04T12:18:42.671Z,16.77
2018-11-04T12:21:11.687Z,17.67
2018-11-04T12:23:40.701Z,18.30
2018-11-04T12:26:09.638Z,19.03
2018-11-04T12:28:38.573Z,18.60
2018-11-04T12:31:07.538Z,18.83
2018-11-04T12:33:36.680Z,18.60
2018-11-04T12:36:05.621Z,18.73
2018-11-04T12:38:34.671Z,17.77
2018-11-04T12:41:03.598Z,17.97
2018-11-04T12:43:32.703Z,19.07
2018-11-04T12:46:01.766Z,18.13
2018-11-04T12:48:30.829Z,18.77
2018-11-04T12:50:59.878Z,19.03
2018-11-04T12:53:28.977Z,18.97
2018-11-04T12:55:57.997Z,17.73
2018-11-04T12:58:30.051Z,18.23
2018-11-04T13:00:59.081Z,18.10
2018-11-04T13:03:28.360Z,17.87
2018-11-04T13:05:57.468Z,18.90
2018-11-04T13:08:26.570Z,18.03
2018-11-04T13:10:55.627Z,19.27
2018-11-04T13:13:25.457Z,18.80
2018-11-04T13:15:56.018Z,18.27
2018-11-04T13:18:25.244Z,18.90
2018-11-04T13:20:54.588Z,19.17
2018-11-04T13:23:23.611Z,17.50
2018-11-04T13:25:52.783Z,17.20
2018-11-04T13:28:22.268Z,18.00
2018-11-04T13:30:55.981Z,17.50
2018-11-04T13:33:25.446Z,17.33
2018-11-04T13:35:54.587Z,16.63
2018-11-04T13:38:34.141Z,17.53
2018-11-04T13:41:03.394Z,17.07
2018-11-04T13:43:33.338Z,17.63
2018-11-04T13:46:02.534Z,17.20
2018-11-04T13:48:31.665Z,16.63
2018-11-04T13:51:00.842Z,17.73
2018-11-04T13:53:30.128Z,17.00
2018-11-04T13:55:59.106Z,17.07
2018-11-04T13:58:28.166Z,17.07
2018-11-04T14:00:57.095Z,16.57
2018-11-04T14:03:26.058Z,17.63
2018-11-04T14:05:55.095Z,16.77
2018-11-04T14:08:24.005Z,18.80
2018-11-04T14:10:52.948Z,18.10
2018-11-04T14:13:22.044Z,20.93
2018-11-04T14:15:51.085Z,22.60
2018-11-04T14:18:20.533Z,20.97
2018-11-04T14:20:49.504Z,18.30
2018-11-04T14:23:18.483Z,17.70
2018-11-04T14:25:47.412Z,17.73
2018-11-04T14:28:16.586Z,17.57
2018-11-04T14:30:45.537Z,18.07
2018-11-04T14:33:14.471Z,18.50
2018-11-04T14:35:43.619Z,18.47
2018-11-04T14:38:12.667Z,18.30
2018-11-04T14:40:41.698Z,17.60
2018-11-04T14:43:10.942Z,20.43
2018-11-04T14:45:40.041Z,20.67
2018-11-04T14:48:09.149Z,19.07
2018-11-04T14:50:38.446Z,25.17
2018-11-04T14:53:07.718Z,29.57
2018-11-04T14:55:37.774Z,29.70
2018-11-04T14:58:06.942Z,25.73
2018-11-04T15:00:37.063Z,23.33
2018-11-04T15:03:07.861Z,19.87
2018-11-04T15:05:37.270Z,19.00
2018-11-04T15:08:06.435Z,17.93
2018-11-04T15:10:35.699Z,17.57
2018-11-04T15:13:05.033Z,18.60
2018-11-04T15:15:34.379Z,17.67
2018-11-04T15:18:03.826Z,17.30
2018-11-04T15:20:33.469Z,16.87
2018-11-04T15:23:02.634Z,17.13
2018-11-04T15:25:31.910Z,16.83
2018-11-04T15:28:01.026Z,17.90
2018-11-04T15:30:30.238Z,17.47
2018-11-04T15:32:59.391Z,17.03
2018-11-04T15:35:28.481Z,19.00
2018-11-04T15:37:57.622Z,22.03
2018-11-04T15:40:26.805Z,23.43
2018-11-04T15:42:56.328Z,23.43
2018-11-04T15:45:26.404Z,23.83
2018-11-04T15:48:03.132Z,23.47
2018-11-04T15:50:42.467Z,23.63
2018-11-04T15:53:17.995Z,26.07
2018-11-04T15:55:47.295Z,26.50
2018-11-04T15:58:16.533Z,29.03
2018-11-04T16:13:48.426Z,27.10
2018-11-04T16:16:18.429Z,27.20
2018-11-04T16:18:47.884Z,27.20
2018-11-04T16:21:17.008Z,21.60
2018-11-04T16:23:51.755Z,19.93
2018-11-04T16:32:48.448Z,19.10
2018-11-04T16:35:25.671Z,18.90
2018-11-04T16:37:56.061Z,17.07
2018-11-04T16:40:26.732Z,18.80
2018-11-04T16:42:56.548Z,17.97
2018-11-04T16:45:27.842Z,17.67
2018-11-04T16:47:57.495Z,20.93
2018-11-04T16:50:27.282Z,19.30
2018-11-04T16:52:57.292Z,19.27
2018-11-04T16:55:26.508Z,17.87
2018-11-04T16:57:57.455Z,20.83
2018-11-04T17:00:26.527Z,25.27
2018-11-04T17:02:55.407Z,24.00
2018-11-04T17:05:25.812Z,22.40
2018-11-04T17:07:55.654Z,22.27
2018-11-04T17:10:24.775Z,22.57
2018-11-04T17:12:53.799Z,22.60
2018-11-04T17:15:22.983Z,25.57
2018-11-04T17:17:52.079Z,27.87
2018-11-04T17:20:21.260Z,29.27
2018-11-04T17:22:50.352Z,27.57
2018-11-04T17:25:19.431Z,27.77
2018-11-04T17:27:48.434Z,26.00
2018-11-04T17:30:18.596Z,27.47
2018-11-04T17:32:48.112Z,30.23
2018-11-04T17:35:17.822Z,27.53
2018-11-04T17:37:47.317Z,28.17
2018-11-04T17:40:17.285Z,27.00
2018-11-04T17:42:46.472Z,23.77
2018-11-04T17:45:16.624Z,22.10
2018-11-04T17:47:46.298Z,22.90
2018-11-04T17:50:17.598Z,20.20
2018-11-04T17:52:46.722Z,18.10
2018-11-04T17:55:16.131Z,16.17
2018-11-04T17:57:45.649Z,16.10
2018-11-04T18:00:16.229Z,15.63
2018-11-04T18:02:45.802Z,14.63
2018-11-04T18:05:15.455Z,15.17
2018-11-04T18:07:45.301Z,14.70
2018-11-04T18:10:15.508Z,14.60
2018-11-04T18:12:45.032Z,14.50
2018-11-04T18:15:14.789Z,14.93
2018-11-04T18:17:44.720Z,15.47
2018-11-04T18:20:13.946Z,13.97
2018-11-04T18:22:43.560Z,15.20
2018-11-04T18:25:16.163Z,12.90
2018-11-04T18:27:45.532Z,15.13
2018-11-04T18:30:15.906Z,16.33
2018-11-04T18:32:45.533Z,15.27
2018-11-04T18:35:14.693Z,14.43
2018-11-04T18:37:56.076Z,15.33
2018-11-04T18:40:29.803Z,16.67
2018-11-04T18:42:59.210Z,16.67
2018-11-04T18:45:28.501Z,17.07
2018-11-04T18:48:12.534Z,17.73
2018-11-04T18:50:42.323Z,18.23
2018-11-04T18:53:11.746Z,17.97
2018-11-04T18:55:42.512Z,17.13
2018-11-04T18:59:29.606Z,17.47
2018-11-04T19:02:12.833Z,17.43
2018-11-04T19:04:42.716Z,19.10
2018-11-04T19:07:11.956Z,18.47
2018-11-04T19:09:42.481Z,20.90
2018-11-04T19:12:31.433Z,21.50
2018-11-04T19:15:02.767Z,20.37
2018-11-04T19:17:32.385Z,19.03
2018-11-04T19:20:01.742Z,19.13
2018-11-04T19:22:31.078Z,21.27
2018-11-04T19:25:00.408Z,19.70
2018-11-04T19:27:29.442Z,20.33
2018-11-04T19:29:58.834Z,22.07
2018-11-04T19:32:27.967Z,22.90
2018-11-04T19:34:57.877Z,21.30
2018-11-04T19:37:27.489Z,21.27
2018-11-04T19:39:56.615Z,20.27
2018-11-04T19:42:35.099Z,20.00
2018-11-04T19:45:18.328Z,20.87
2018-11-04T19:48:10.147Z,19.37
2018-11-04T19:50:42.273Z,19.77
2018-11-04T19:53:14.444Z,20.40
2018-11-04T19:55:44.797Z,19.67
2018-11-04T19:58:18.387Z,19.87
2018-11-04T20:00:48.954Z,21.13
2018-11-04T20:03:18.188Z,19.30
2018-11-04T20:05:47.570Z,20.03
2018-11-04T20:08:16.793Z,21.73
2018-11-04T20:10:45.985Z,22.10
2018-11-04T20:13:21.253Z,22.60
2018-11-04T20:15:50.840Z,22.70
2018-11-04T20:18:26.539Z,24.20
2018-11-04T20:20:56.064Z,23.23
2018-11-04T20:23:25.253Z,22.07
2018-11-04T20:26:02.231Z,21.77
2018-11-04T20:28:34.353Z,23.20
2018-11-04T20:31:03.627Z,22.40
2018-11-04T20:33:34.339Z,22.30
2018-11-04T20:36:05.079Z,21.77
2018-11-04T20:38:42.772Z,22.17
2018-11-04T20:41:17.097Z,22.90
2018-11-04T20:43:46.544Z,22.30
2018-11-04T20:46:15.627Z,21.47
2018-11-04T20:48:49.971Z,21.63
2018-11-04T20:51:19.075Z,22.43
2018-11-04T20:53:48.156Z,23.70
2018-11-04T20:56:22.494Z,23.43
2018-11-04T20:58:51.548Z,22.27
2018-11-04T21:01:20.604Z,23.03
2018-11-04T21:03:50.189Z,22.53
2018-11-04T21:06:19.253Z,22.30
2018-11-04T21:08:48.422Z,23.53
2018-11-04T21:11:17.576Z,23.67
2018-11-04T21:13:47.883Z,26.33
2018-11-04T21:16:17.043Z,25.83
2018-11-04T21:18:47.447Z,25.97
2018-11-04T21:21:16.565Z,25.97
2018-11-04T21:23:45.796Z,25.50
2018-11-04T21:26:14.821Z,24.67
2018-11-04T21:28:44.234Z,24.47
2018-11-04T21:31:13.415Z,25.17
2018-11-04T21:33:42.605Z,23.43
2018-11-04T21:36:11.762Z,24.40
2018-11-04T21:38:41.937Z,22.40
2018-11-04T21:41:11.146Z,23.90
2018-11-04T21:43:40.603Z,23.37
2018-11-04T21:46:09.489Z,22.97
2018-11-04T21:48:39.488Z,23.17
2018-11-04T21:51:08.752Z,23.10
2018-11-04T21:53:37.806Z,23.27
2018-11-04T21:56:08.089Z,21.27
2018-11-04T21:58:37.595Z,22.30
2018-11-04T22:01:07.462Z,23.63
2018-11-04T22:03:37.633Z,24.03
2018-11-04T22:06:06.939Z,23.10
2018-11-04T22:08:36.150Z,23.60
2018-11-04T22:11:05.221Z,24.63
2018-11-04T22:13:34.387Z,25.30
2018-11-04T22:16:03.652Z,26.40
2018-11-04T22:18:32.668Z,31.00
2018-11-04T22:21:01.856Z,28.33
2018-11-04T22:23:31.004Z,26.40
2018-11-04T22:25:59.910Z,25.73
2018-11-04T22:28:29.004Z,24.83
2018-11-04T22:30:57.990Z,25.73
2018-11-04T22:33:26.944Z,25.00
2018-11-04T22:35:56.043Z,23.23
2018-11-04T22:38:25.039Z,22.47
2018-11-04T22:40:54.108Z,23.43
2018-11-04T22:43:23.084Z,23.17
2018-11-04T22:45:52.069Z,22.43
2018-11-04T22:48:21.140Z,22.33
2018-11-04T22:50:50.214Z,22.17
2018-11-04T22:53:19.130Z,22.50
2018-11-04T22:55:48.113Z,22.60
2018-11-04T22:58:17.118Z,23.13
2018-11-04T23:00:47.049Z,21.27
2018-11-04T23:03:16.026Z,21.43
2018-11-04T23:05:45.036Z,22.13
2018-11-04T23:08:13.985Z,21.77
2018-11-04T23:10:43.044Z,21.87
2018-11-04T23:13:12.859Z,21.47
2018-11-04T23:15:41.761Z,21.90
2018-11-04T23:18:10.738Z,22.43
2018-11-04T23:20:39.733Z,23.17
2018-11-04T23:23:09.474Z,22.00
2018-11-04T23:25:38.520Z,22.40
2018-11-04T23:28:07.822Z,20.73
2018-11-04T23:30:36.864Z,20.97
2018-11-04T23:33:05.886Z,22.53
2018-11-04T23:35:34.987Z,20.70
2018-11-04T23:38:04.018Z,20.17
2018-11-04T23:40:34.156Z,19.43
2018-11-04T23:43:03.184Z,20.90
2018-11-04T23:45:32.248Z,19.27
2018-11-04T23:48:01.179Z,20.13
2018-11-04T23:50:30.298Z,19.90
2018-11-04T23:53:00.161Z,19.50
2018-11-04T23:55:29.256Z,19.07
2018-11-04T23:57:58.384Z,20.23
